createdAt,value
2023-01-20T00:01:31.585Z,5.22
2023-01-20T00:04:33.227Z,5.35
2023-01-20T00:07:35.976Z,4.38
2023-01-20T00:10:37.557Z,4.80
2023-01-20T00:13:39.592Z,5.25
2023-01-20T00:16:41.149Z,4.93
2023-01-20T00:19:42.923Z,5.57
2023-01-20T00:22:44.445Z,4.57
2023-01-20T00:25:46.061Z,6.00
2023-01-20T00:28:48.185Z,5.43
2023-01-20T00:31:49.676Z,5.28
2023-01-20T00:34:51.154Z,5.25
2023-01-20T00:37:52.769Z,5.70
2023-01-20T00:40:55.261Z,5.93
2023-01-20T00:43:56.732Z,5.88
2023-01-20T00:46:58.308Z,5.93
2023-01-20T00:49:59.825Z,4.82
2023-01-20T00:53:01.454Z,5.15
2023-01-20T00:56:02.993Z,4.32
2023-01-20T00:59:04.468Z,4.32
2023-01-20T01:02:06.148Z,3.78
2023-01-20T01:05:08.108Z,3.95
2023-01-20T01:08:09.712Z,4.65
2023-01-20T01:11:12.306Z,4.50
2023-01-20T01:14:13.973Z,4.18
2023-01-20T01:17:15.555Z,3.90
2023-01-20T01:20:17.458Z,3.28
2023-01-20T01:23:19.061Z,3.50
2023-01-20T01:26:20.672Z,3.40
2023-01-20T01:29:22.284Z,3.20
2023-01-20T01:32:24.251Z,3.13
2023-01-20T01:35:25.822Z,2.55
2023-01-20T01:38:28.291Z,2.20
2023-01-20T01:41:30.062Z,1.95
2023-01-20T01:44:32.413Z,2.53
2023-01-20T01:47:34.871Z,2.75
2023-01-20T01:50:41.929Z,3.00
2023-01-20T01:53:47.459Z,2.60
2023-01-20T01:56:50.957Z,2.92
2023-01-20T01:59:52.570Z,2.90
2023-01-20T02:02:55.777Z,2.45
2023-01-20T02:05:58.336Z,2.73
2023-01-20T02:09:02.365Z,2.55
2023-01-20T02:12:09.091Z,2.20
2023-01-20T02:15:11.015Z,2.45
2023-01-20T02:18:32.738Z,2.00
2023-01-20T02:21:57.581Z,2.00
2023-01-20T02:25:19.827Z,2.28
2023-01-20T02:29:11.726Z,2.75
2023-01-20T02:32:49.989Z,2.22
2023-01-20T02:36:04.185Z,1.98
2023-01-20T02:43:02.276Z,2.10
2023-01-20T02:46:11.713Z,2.17
2023-01-20T02:49:24.053Z,2.65
2023-01-20T02:52:30.333Z,1.80
2023-01-20T02:55:44.159Z,2.30
2023-01-20T02:58:50.894Z,2.05
2023-01-20T03:01:57.299Z,1.90
2023-01-20T03:05:10.038Z,1.98
2023-01-20T03:08:14.507Z,2.22
2023-01-20T03:11:16.497Z,1.95
2023-01-20T03:14:18.179Z,2.30
2023-01-20T03:17:20.699Z,2.28
2023-01-20T03:20:22.259Z,1.80
2023-01-20T03:23:26.619Z,1.85
2023-01-20T03:26:28.377Z,1.63
2023-01-20T03:29:30.713Z,1.35
2023-01-20T03:32:32.539Z,1.83
2023-01-20T03:35:34.485Z,1.85
2023-01-20T03:38:36.396Z,1.52
2023-01-20T03:41:40.563Z,2.00
2023-01-20T03:48:04.293Z,1.90
2023-01-20T03:51:13.915Z,2.05
2023-01-20T03:54:23.023Z,1.75
2023-01-20T03:57:31.888Z,2.13
2023-01-20T04:00:37.436Z,1.70
2023-01-20T04:03:44.492Z,1.52
2023-01-20T04:06:49.559Z,1.70
2023-01-20T04:09:56.309Z,1.67
2023-01-20T04:12:57.809Z,2.15
2023-01-20T04:16:01.886Z,1.92
2023-01-20T04:22:22.020Z,2.05
2023-01-20T04:25:31.124Z,2.13
2023-01-20T04:28:32.561Z,1.42
2023-01-20T04:31:35.415Z,1.88
2023-01-20T04:34:37.060Z,1.98
2023-01-20T04:37:38.532Z,1.63
2023-01-20T04:40:40.051Z,1.63
2023-01-20T04:43:45.163Z,2.58
2023-01-20T04:46:47.348Z,2.05
2023-01-20T04:49:48.911Z,1.83
2023-01-20T04:52:55.135Z,2.45
2023-01-20T04:55:56.688Z,1.60
2023-01-20T04:58:58.609Z,1.80
2023-01-20T05:02:00.544Z,1.83
2023-01-20T05:05:02.112Z,1.55
2023-01-20T05:08:04.777Z,2.25
2023-01-20T05:11:06.669Z,1.83
2023-01-20T05:14:08.580Z,2.30
2023-01-20T05:17:10.071Z,2.67
2023-01-20T05:20:11.679Z,4.13
2023-01-20T05:23:13.219Z,3.47
2023-01-20T05:26:14.778Z,2.08
2023-01-20T05:29:16.362Z,2.33
2023-01-20T05:32:17.808Z,2.17
2023-01-20T05:35:19.349Z,2.20
2023-01-20T05:38:21.043Z,3.17
2023-01-20T05:41:22.580Z,4.13
2023-01-20T05:44:24.119Z,3.40
2023-01-20T05:47:25.665Z,3.40
2023-01-20T05:50:28.344Z,11.93
2023-01-20T05:53:29.891Z,6.05
2023-01-20T05:56:31.456Z,4.82
2023-01-20T05:59:33.048Z,4.43
2023-01-20T06:02:34.541Z,4.50
2023-01-20T06:05:36.051Z,3.60
2023-01-20T06:08:37.622Z,4.20
2023-01-20T06:11:39.219Z,3.67
2023-01-20T06:14:40.680Z,3.30
2023-01-20T06:17:42.193Z,11.27
2023-01-20T06:20:43.773Z,15.00
2023-01-20T06:27:06.340Z,3.90
2023-01-20T06:30:08.870Z,3.13
2023-01-20T06:33:10.897Z,3.33
2023-01-20T06:36:14.161Z,3.42
2023-01-20T06:39:15.629Z,3.97
2023-01-20T06:42:17.060Z,3.85
2023-01-20T06:45:18.845Z,5.00
2023-01-20T06:48:20.573Z,5.15
2023-01-20T06:51:22.097Z,5.40
2023-01-20T06:54:23.784Z,4.60
2023-01-20T06:57:25.361Z,4.72
2023-01-20T07:00:27.083Z,4.90
2023-01-20T07:03:28.715Z,5.30
2023-01-20T07:06:38.759Z,5.20
2023-01-20T07:09:40.323Z,5.10
2023-01-20T07:12:41.933Z,5.00
2023-01-20T07:15:43.682Z,5.40
2023-01-20T07:18:48.848Z,4.72
2023-01-20T07:21:50.371Z,4.30
2023-01-20T07:24:51.975Z,4.05
2023-01-20T07:27:53.537Z,6.10
2023-01-20T07:30:55.143Z,14.90
2023-01-20T07:33:58.124Z,5.50
2023-01-20T07:37:02.267Z,4.28
2023-01-20T07:40:04.285Z,4.63
2023-01-20T07:43:05.847Z,4.55
2023-01-20T07:46:07.718Z,4.05
2023-01-20T07:49:12.218Z,4.38
2023-01-20T07:52:14.104Z,4.75
2023-01-20T07:55:15.985Z,3.80
2023-01-20T07:58:17.634Z,3.65
2023-01-20T08:01:23.070Z,4.13
2023-01-20T08:04:24.778Z,3.60
2023-01-20T08:07:26.280Z,4.00
2023-01-20T08:10:29.262Z,4.30
2023-01-20T08:13:31.720Z,3.83
2023-01-20T08:16:33.647Z,4.97
2023-01-20T08:19:35.242Z,4.45
2023-01-20T08:22:36.747Z,4.90
2023-01-20T08:25:38.335Z,4.30
2023-01-20T08:28:40.163Z,4.68
2023-01-20T08:31:42.465Z,4.63
2023-01-20T08:34:44.097Z,4.82
2023-01-20T08:37:45.592Z,5.38
2023-01-20T08:40:47.124Z,5.95
2023-01-20T08:43:49.331Z,5.43
2023-01-20T08:46:52.693Z,6.07
2023-01-20T08:49:54.429Z,6.07
2023-01-20T08:52:55.877Z,5.65
2023-01-20T08:55:59.284Z,5.10
2023-01-20T08:59:04.414Z,5.03
2023-01-20T09:02:26.289Z,5.40
2023-01-20T09:05:27.937Z,5.38
2023-01-20T09:08:30.526Z,4.35
2023-01-20T09:11:32.113Z,4.53
2023-01-20T09:14:33.677Z,4.70
2023-01-20T09:17:36.068Z,4.18
2023-01-20T09:20:37.589Z,4.20
2023-01-20T09:23:40.340Z,4.10
2023-01-20T09:26:41.839Z,3.78
2023-01-20T09:29:43.347Z,4.22
2023-01-20T09:32:44.840Z,4.63
2023-01-20T09:35:54.163Z,3.53
2023-01-20T09:39:14.385Z,4.07
2023-01-20T09:42:50.929Z,4.88
2023-01-20T09:46:07.727Z,3.30
2023-01-20T09:49:49.987Z,3.70
2023-01-20T09:53:21.269Z,4.45
2023-01-20T09:56:27.807Z,4.75
2023-01-20T09:59:40.190Z,4.25
2023-01-20T10:02:47.994Z,4.15
2023-01-20T10:05:52.917Z,4.90
2023-01-20T10:09:06.283Z,4.90
2023-01-20T10:12:15.820Z,4.65
2023-01-20T10:15:37.237Z,4.43
2023-01-20T10:18:54.004Z,4.60
2023-01-20T10:22:13.329Z,9.10
2023-01-20T10:25:21.288Z,3.67
2023-01-20T10:28:28.481Z,3.70
2023-01-20T10:31:37.851Z,3.60
2023-01-20T10:34:46.299Z,3.78
2023-01-20T10:37:47.794Z,3.47
2023-01-20T10:41:00.235Z,2.65
2023-01-20T10:44:03.044Z,3.78
2023-01-20T10:47:40.872Z,3.15
2023-01-20T10:50:56.289Z,2.78
2023-01-20T10:54:26.710Z,2.60
2023-01-20T10:57:28.336Z,3.28
2023-01-20T11:00:32.007Z,4.53
2023-01-20T11:03:41.025Z,3.72
2023-01-20T11:06:42.869Z,3.10
2023-01-20T11:09:47.105Z,3.45
2023-01-20T11:15:56.451Z,4.18
2023-01-20T11:19:04.133Z,2.78
2023-01-20T11:22:21.261Z,3.45
2023-01-20T11:25:25.823Z,3.28
2023-01-20T11:28:45.770Z,3.83
2023-01-20T11:31:55.051Z,4.95
2023-01-20T11:34:57.971Z,6.95
2023-01-20T11:38:20.080Z,8.73
2023-01-20T11:41:23.060Z,8.43
2023-01-20T11:44:25.190Z,9.23
2023-01-20T11:47:38.735Z,8.50
2023-01-20T11:50:45.942Z,10.60
2023-01-20T11:53:48.134Z,11.32
2023-01-20T11:56:54.649Z,14.77
2023-01-20T11:59:56.416Z,12.98
2023-01-20T12:03:24.327Z,12.55
2023-01-20T12:06:29.690Z,13.57
2023-01-20T12:09:37.589Z,11.73
2023-01-20T12:12:50.809Z,11.15
2023-01-20T12:15:55.673Z,11.18
2023-01-20T12:19:03.316Z,10.40
2023-01-20T12:22:13.567Z,11.23
2023-01-20T12:25:22.297Z,11.27
2023-01-20T12:28:51.718Z,10.73
2023-01-20T12:31:54.492Z,11.40
2023-01-20T12:34:56.149Z,9.25
2023-01-20T12:38:08.397Z,7.90
2023-01-20T12:41:34.567Z,8.43
2023-01-20T12:44:53.699Z,8.25
2023-01-20T12:48:15.472Z,7.57
2023-01-20T12:51:20.813Z,7.47
2023-01-20T12:54:47.357Z,5.50
2023-01-20T12:58:08.360Z,5.88
2023-01-20T13:01:42.914Z,5.63
2023-01-20T13:04:44.344Z,7.35
2023-01-20T13:08:09.716Z,7.60
2023-01-20T13:11:39.394Z,7.80
2023-01-20T13:14:58.657Z,8.18
2023-01-20T13:18:29.842Z,7.63
2023-01-20T13:21:33.132Z,7.57
2023-01-20T13:24:35.269Z,7.33
2023-01-20T13:27:38.361Z,7.53
2023-01-20T13:30:47.761Z,6.15
2023-01-20T13:33:49.323Z,6.40
2023-01-20T13:37:07.334Z,7.38
2023-01-20T13:40:36.532Z,7.43
2023-01-20T13:43:44.064Z,7.60
2023-01-20T13:46:47.527Z,7.93
2023-01-20T13:49:54.502Z,7.18
2023-01-20T13:53:11.304Z,6.50
2023-01-20T13:56:35.022Z,8.07
2023-01-20T13:59:37.394Z,7.35
2023-01-20T14:02:39.018Z,6.82
2023-01-20T14:05:43.364Z,7.70
2023-01-20T14:08:47.729Z,6.30
2023-01-20T14:11:50.870Z,5.97
2023-01-20T14:14:54.118Z,7.38
2023-01-20T14:17:58.400Z,6.97
2023-01-20T14:21:04.644Z,8.10
2023-01-20T14:24:06.242Z,8.10
2023-01-20T14:27:24.498Z,8.40
2023-01-20T14:30:27.612Z,8.43
2023-01-20T14:33:29.224Z,7.22
2023-01-20T14:36:33.110Z,7.32
2023-01-20T14:39:35.415Z,7.70
2023-01-20T14:42:38.727Z,5.97
2023-01-20T14:45:43.779Z,5.03
2023-01-20T14:48:46.397Z,4.93
2023-01-20T14:51:50.214Z,4.47
2023-01-20T14:54:53.018Z,4.40
2023-01-20T14:57:55.039Z,3.13
2023-01-20T15:01:01.907Z,2.80
2023-01-20T15:04:05.957Z,3.28
2023-01-20T15:07:17.862Z,3.15
2023-01-20T15:10:19.715Z,3.80
2023-01-20T15:13:23.120Z,4.05
2023-01-20T15:16:36.986Z,4.07
2023-01-20T15:19:46.207Z,4.10
2023-01-20T15:22:48.552Z,3.80
2023-01-20T15:25:51.959Z,4.22
2023-01-20T15:28:54.958Z,4.43
2023-01-20T15:31:59.010Z,4.97
2023-01-20T15:38:02.087Z,6.25
2023-01-20T15:41:03.662Z,4.32
2023-01-20T15:44:05.821Z,4.03
2023-01-20T15:47:29.235Z,5.38
2023-01-20T15:50:31.584Z,4.88
2023-01-20T15:53:36.146Z,7.85
2023-01-20T15:56:40.989Z,4.93
2023-01-20T15:59:46.039Z,5.60
2023-01-20T16:02:47.846Z,6.60
2023-01-20T16:05:51.780Z,5.90
2023-01-20T16:08:53.542Z,5.65
2023-01-20T16:11:55.312Z,5.40
2023-01-20T16:14:57.212Z,4.93
2023-01-20T16:17:58.699Z,4.70
2023-01-20T16:21:00.208Z,5.68
2023-01-20T16:24:01.695Z,5.20
2023-01-20T16:27:11.670Z,4.60
2023-01-20T16:30:19.641Z,4.22
2023-01-20T16:33:24.336Z,4.80
2023-01-20T16:36:25.879Z,5.00
2023-01-20T16:39:27.385Z,4.53
2023-01-20T16:42:28.927Z,4.90
2023-01-20T16:45:31.473Z,5.40
2023-01-20T16:48:32.990Z,6.45
2023-01-20T16:51:34.512Z,6.20
2023-01-20T16:54:36.093Z,6.32
2023-01-20T16:57:37.835Z,6.00
2023-01-20T17:00:40.109Z,5.10
2023-01-20T17:03:42.365Z,4.78
2023-01-20T17:06:43.992Z,4.10
2023-01-20T17:10:09.024Z,4.70
2023-01-20T17:13:10.452Z,4.78
2023-01-20T17:16:12.132Z,6.45
2023-01-20T17:19:15.093Z,5.38
2023-01-20T17:22:18.146Z,6.38
2023-01-20T17:25:19.926Z,4.60
2023-01-20T17:28:21.503Z,7.13
2023-01-20T17:31:23.784Z,7.78
2023-01-20T17:34:25.485Z,6.30
2023-01-20T17:37:27.117Z,4.55
2023-01-20T17:40:28.567Z,4.53
2023-01-20T17:43:38.470Z,4.95
2023-01-20T17:46:39.991Z,4.85
2023-01-20T17:49:41.765Z,5.25
2023-01-20T17:52:43.327Z,5.57
2023-01-20T17:55:44.814Z,8.85
2023-01-20T17:58:47.306Z,7.03
2023-01-20T18:01:52.302Z,6.43
2023-01-20T18:04:53.848Z,5.40
2023-01-20T18:07:55.355Z,5.40
2023-01-20T18:11:05.380Z,5.55
2023-01-20T18:14:07.548Z,5.47
2023-01-20T18:17:09.138Z,5.68
2023-01-20T18:20:12.071Z,5.15
2023-01-20T18:23:13.598Z,6.80
2023-01-20T18:26:16.840Z,7.85
2023-01-20T18:29:18.323Z,8.17
2023-01-20T18:32:19.862Z,6.95
2023-01-20T18:35:21.371Z,7.47
2023-01-20T18:38:22.964Z,7.45
2023-01-20T18:41:26.842Z,5.80
2023-01-20T18:44:28.329Z,5.88
2023-01-20T18:47:29.885Z,5.80
2023-01-20T18:50:31.407Z,6.55
2023-01-20T18:53:33.230Z,5.82
2023-01-20T18:56:35.383Z,7.68
2023-01-20T18:59:36.864Z,9.50
2023-01-20T19:02:38.508Z,10.05
2023-01-20T19:05:40.061Z,8.10
2023-01-20T19:08:43.124Z,6.65
2023-01-20T19:11:44.691Z,5.60
2023-01-20T19:14:46.275Z,6.47
2023-01-20T19:17:47.863Z,6.18
2023-01-20T19:20:49.706Z,5.38
2023-01-20T19:23:56.742Z,6.10
2023-01-20T19:27:00.301Z,5.50
2023-01-20T19:30:01.969Z,6.18
2023-01-20T19:33:03.903Z,6.00
2023-01-20T19:36:07.932Z,5.50
2023-01-20T19:42:11.824Z,6.53
2023-01-20T19:45:13.563Z,6.88
2023-01-20T19:48:15.181Z,6.30
2023-01-20T19:51:17.329Z,7.50
2023-01-20T19:54:18.920Z,12.55
2023-01-20T19:57:20.511Z,6.35
2023-01-20T20:00:22.163Z,7.05
2023-01-20T20:03:23.800Z,6.80
2023-01-20T20:06:25.380Z,7.05
2023-01-20T20:09:27.592Z,7.03
2023-01-20T20:12:29.200Z,7.97
2023-01-20T20:15:30.862Z,6.20
2023-01-20T20:18:32.402Z,6.53
2023-01-20T20:21:34.233Z,6.28
2023-01-20T20:24:35.931Z,6.50
2023-01-20T20:27:37.515Z,5.68
2023-01-20T20:30:42.127Z,5.80
2023-01-20T20:33:46.075Z,6.78
2023-01-20T20:36:47.973Z,5.88
2023-01-20T20:39:51.508Z,6.57
2023-01-20T20:42:52.972Z,6.20
2023-01-20T20:45:54.637Z,7.57
2023-01-20T20:49:01.347Z,8.75
2023-01-20T20:52:02.936Z,7.47
2023-01-20T20:55:05.544Z,8.57
2023-01-20T20:58:07.583Z,8.23
2023-01-20T21:01:16.402Z,10.63
2023-01-20T21:04:18.016Z,14.25
2023-01-20T21:07:19.509Z,8.45
2023-01-20T21:10:21.169Z,8.40
2023-01-20T21:13:23.526Z,8.30
2023-01-20T21:16:26.257Z,9.65
2023-01-20T21:19:27.792Z,13.32
2023-01-20T21:22:29.609Z,9.90
2023-01-20T21:25:31.473Z,8.93
2023-01-20T21:28:35.586Z,8.02
2023-01-20T21:34:38.742Z,6.47
2023-01-20T21:37:40.237Z,7.43
2023-01-20T21:40:44.792Z,7.88
2023-01-20T21:44:06.366Z,7.38
2023-01-20T21:47:08.113Z,7.65
2023-01-20T21:50:29.527Z,6.57
2023-01-20T21:53:30.997Z,7.10
2023-01-20T21:56:32.599Z,6.88
2023-01-20T21:59:34.113Z,6.40
2023-01-20T22:02:35.878Z,8.45
2023-01-20T22:05:38.621Z,5.57
2023-01-20T22:08:40.178Z,5.90
2023-01-20T22:11:41.745Z,5.60
2023-01-20T22:14:43.476Z,9.00
2023-01-20T22:17:45.407Z,8.63
2023-01-20T22:21:21.660Z,6.20
2023-01-20T22:24:23.540Z,5.82
2023-01-20T22:27:25.046Z,6.50
2023-01-20T22:30:26.652Z,6.00
2023-01-20T22:33:28.169Z,8.43
2023-01-20T22:36:29.767Z,7.38
2023-01-20T22:39:31.385Z,12.60
2023-01-20T22:42:34.084Z,12.32
2023-01-20T22:45:35.574Z,9.63
2023-01-20T22:48:37.221Z,8.55
2023-01-20T22:51:39.027Z,7.40
2023-01-20T22:54:40.573Z,5.10
2023-01-20T22:57:42.123Z,5.50
2023-01-20T23:00:43.849Z,6.10
2023-01-20T23:03:46.169Z,5.75
2023-01-20T23:06:47.703Z,6.03
2023-01-20T23:09:50.035Z,5.30
2023-01-20T23:12:51.865Z,5.50
2023-01-20T23:15:53.603Z,6.03
2023-01-20T23:18:55.154Z,6.68
2023-01-20T23:21:56.794Z,5.82
2023-01-20T23:24:58.329Z,5.18
2023-01-20T23:27:59.887Z,5.20
2023-01-20T23:31:04.543Z,5.38
2023-01-20T23:34:06.134Z,5.57
2023-01-20T23:37:07.824Z,5.13
2023-01-20T23:40:10.306Z,5.25
2023-01-20T23:43:11.849Z,5.15
2023-01-20T23:46:13.561Z,5.28
2023-01-20T23:49:15.234Z,4.93
2023-01-20T23:52:16.987Z,5.47
2023-01-20T23:55:18.528Z,5.00
2023-01-20T23:58:20.112Z,5.15
